Latest Weather Observations for Geelong Racecourse

IDV60901

Issued at 8:01 pm EST Monday 1 June 2020 (issued every 10 minutes, with the page automatically refreshed every 10 minutes)

About weather observations | Map of Melbourne area stations | Latest observations for Melbourne area | Other Formats
Station Details ID: 087184 Name: GEELONG RACECOURSE Lat: -38.17 Lon: 144.38 Height: 12.9 m
Data from the previous 72 hours. | See also: Recent months at Geelong Racecourse
Date/Time
EST
Temp
°C
App
Temp
°C
Dew
Point
°C
Rel
Hum
%
Delta-T
°C
Wind Press
QNH
hPa
Press
MSL
hPa
Rain since
9am
mm
Dir  Spd
km/h
Gust
km/h
Spd
kts
Gust
kts
01/08:00pm 9.0 5.6 7.8 92 0.6 W 15 22 8 12 1015.1 1015.1 1.8
01/07:30pm 8.9 5.5 7.8 93 0.5 W 15 22 8 12 1014.5 1014.5 1.8
01/07:00pm 8.9 5.5 7.8 93 0.5 W 15 24 8 13 1013.9 1013.9 1.8
01/06:30pm 8.9 5.2 7.8 93 0.5 W 17 24 9 13 1013.1 1013.1 1.8
01/06:00pm 9.8 4.9 8.6 92 0.6 WSW 24 35 13 19 1012.6 1012.6 1.8
01/05:30pm 9.2 3.1 8.3 94 0.4 SW 30 39 16 21 1012.0 1012.0 1.8
01/05:08pm 9.5 3.9 8.6 94 0.4 SW 28 46 15 25 1011.4 1011.4 1.8
01/05:00pm 9.5 3.9 8.7 95 0.4 SW 28 43 15 23 1011.2 1011.2 1.8
01/04:34pm 9.6 3.6 8.7 94 0.4 SW 30 54 16 29 1010.6 1010.6 1.8
01/04:30pm 9.5 3.5 8.7 95 0.4 SW 30 44 16 24 1010.5 1010.5 1.8
01/04:00pm 9.6 4.0 8.8 95 0.4 SW 28 43 15 23 1009.7 1009.7 1.6
01/03:30pm 9.6 2.7 9.0 96 0.3 SW 35 56 19 30 1008.9 1008.9 1.6
01/03:00pm 9.9 3.7 9.4 97 0.2 SW 32 52 17 28 1008.2 1008.2 1.6
01/02:57pm 10.0 4.2 9.5 97 0.2 SW 30 50 16 27 1008.0 1008.0 1.6
01/02:30pm 10.4 6.6 9.9 97 0.3 WSW 20 30 11 16 1007.2 1007.2 1.0
01/02:00pm 10.6 6.4 9.8 95 0.4 WSW 22 39 12 21 1006.3 1006.3 0.8
01/01:30pm 10.7 7.0 10.1 96 0.3 WSW 20 37 11 20 1006.0 1006.0 0.8
01/01:00pm 10.7 5.4 9.9 95 0.4 W 28 39 15 21 1005.5 1005.5 0.6
01/12:30pm 11.6 6.9 10.5 93 0.6 WNW 26 41 14 22 1004.9 1004.9 0.0
01/12:00pm 10.7 5.7 9.6 93 0.6 WNW 26 43 14 23 1004.8 1004.8 0.0
01/11:30am 11.2 6.7 10.1 93 0.6 WNW 24 39 13 21 1004.8 1004.8 0.0
01/11:00am 10.8 6.2 9.7 93 0.6 WNW 24 43 13 23 1004.5 1004.5 0.0
01/10:30am 10.2 5.9 9.3 94 0.4 WNW 22 35 12 19 1004.2 1004.2 0.0
01/10:00am 9.9 5.1 8.8 93 0.5 WNW 24 44 13 24 1003.8 1003.8 0.0
01/09:44am 9.6 4.0 8.7 94 0.4 WNW 28 48 15 26 1003.4 1003.4 0.0
01/09:30am 9.2 3.5 8.3 94 0.4 WNW 28 41 15 22 1003.4 1003.4 0.0
01/09:00am 9.1 4.9 8.2 94 0.4 WNW 20 32 11 17 1003.4 1003.4 2.0
01/08:30am 9.1 4.9 8.2 94 0.4 WNW 20 33 11 18 1003.2 1003.2 2.0
01/08:00am 9.2 5.0 8.3 94 0.4 WNW 20 32 11 17 1003.1 1003.1 2.0
01/07:30am 9.2 6.0 8.4 95 0.4 WNW 15 22 8 12 1002.8 1002.8 2.0
01/07:00am 8.9 5.3 8.3 96 0.3 NW 17 28 9 15 1002.4 1002.4 2.0
01/06:30am 8.9 5.3 8.3 96 0.3 WNW 17 28 9 15 1001.9 1001.9 2.0
01/06:00am 9.1 5.1 8.3 95 0.4 WNW 19 33 10 18 1001.7 1001.7 2.0
01/05:30am 10.7 8.2 9.8 94 0.5 N 13 20 7 11 1000.9 1000.9 1.8
01/05:00am 11.2 8.4 10.1 93 0.6 N 15 20 8 11 1000.8 1000.8 0.8
01/04:30am 11.3 7.7 10.0 92 0.7 N 19 26 10 14 1000.7 1000.7 0.2
01/04:00am 11.8 8.2 9.9 88 1.0 N 19 30 10 16 1001.1 1001.1 0.0
01/03:30am 12.5 8.9 8.2 75 2.1 N 17 30 9 16 1001.5 1001.5 0.0
01/03:00am 12.2 8.7 8.9 80 1.7 N 17 24 9 13 1001.9 1001.9 0.0
01/02:30am 11.5 8.9 9.2 86 1.2 NNE 13 20 7 11 1002.4 1002.4 0.0
01/02:00am 11.1 8.6 9.7 91 0.7 NNE 13 19 7 10 1002.8 1002.8 0.0
01/01:30am 10.6 7.6 9.4 92 0.6 NE 15 22 8 12 1003.5 1003.5 0.0
01/01:00am 10.4 7.8 9.2 92 0.6 NNE 13 19 7 10 1004.0 1004.0 0.0
01/12:30am 11.3 8.3 7.6 78 1.8 N 13 19 7 10 1004.7 1004.7 0.0
01/12:00am 11.5 8.0 7.4 76 2.0 N 15 20 8 11 1005.2 1005.2 0.0
 
Date/Time
EST
Temp
°C
App
Temp
°C
Dew
Point
°C
Rel
Hum
%
Delta-T
°C
Wind Press
QNH
hPa
Press
MSL
hPa
Rain since
9am
mm
Dir  Spd
km/h
Gust
km/h
Spd
kts
Gust
kts
31/11:30pm 11.8 8.1 6.5 70 2.5 N 15 22 8 12 1005.8 1005.8 0.0
31/11:00pm 12.1 8.3 5.9 66 2.9 N 15 20 8 11 1006.2 1006.2 0.0
31/10:30pm 12.4 8.7 6.2 66 2.9 N 15 22 8 12 1006.8 1006.8 0.0
31/10:00pm 12.3 9.9 7.0 70 2.6 NNW 9 15 5 8 1007.3 1007.3 0.0
31/09:30pm 11.9 9.8 8.4 79 1.7 N 9 15 5 8 1007.6 1007.6 0.0
31/09:00pm 12.1 10.5 8.6 79 1.7 NNE 7 11 4 6 1008.0 1008.0 0.0
31/08:30pm 11.9 10.4 9.3 84 1.3 N 7 9 4 5 1008.6 1008.6 0.0
31/08:00pm 11.9 10.5 9.6 86 1.2 N 7 11 4 6 1009.0 1009.0 0.0
31/07:30pm 12.1 9.8 8.9 81 1.6 N 11 15 6 8 1009.1 1009.1 0.0
31/07:00pm 11.9 10.4 10.5 91 0.7 N 9 13 5 7 1009.2 1009.2 0.0
31/06:30pm 11.7 10.7 10.4 92 0.7 NNW 6 7 3 4 1009.3 1009.3 0.0
31/06:00pm 11.4 10.3 10.1 92 0.7 NNW 6 7 3 4 1009.3 1009.3 0.0
31/05:30pm 12.2 10.6 10.1 87 1.1 WNW 9 17 5 9 1009.3 1009.3 0.0
31/05:00pm 12.5 10.8 9.9 84 1.3 WNW 9 13 5 7 1009.5 1009.5 0.0
31/04:30pm 12.9 11.8 10.8 87 1.1 WNW 7 13 4 7 1009.4 1009.4 0.0
31/04:00pm 13.0 11.1 10.5 85 1.3 WNW 11 17 6 9 1009.5 1009.5 0.0
31/03:30pm 13.3 9.9 9.0 75 2.2 WNW 17 24 9 13 1009.7 1009.7 0.0
31/03:00pm 13.9 10.1 7.4 65 3.2 WNW 17 30 9 16 1009.6 1009.6 0.0
31/02:30pm 14.5 10.8 7.8 64 3.3 WNW 17 28 9 15 1009.6 1009.6 0.0
31/02:00pm 14.6 9.2 6.4 58 4.0 NW 24 32 13 17 1009.6 1009.6 0.0
31/01:30pm 15.6 11.0 6.6 55 4.4 NW 20 33 11 18 1009.7 1009.7 0.0
31/01:00pm 16.8 12.1 7.7 55 4.6 NW 22 35 12 19 1010.1 1010.1 0.0
31/12:30pm 16.2 12.4 7.7 57 4.3 WNW 17 26 9 14 1010.6 1010.6 0.0
31/12:00pm 16.2 12.1 7.7 57 4.3 NW 19 28 10 15 1011.1 1011.1 0.0
31/11:30am 15.7 10.9 7.5 58 4.1 NW 22 33 12 18 1011.4 1011.4 0.0
31/11:00am 15.3 11.0 7.8 61 3.7 NW 20 28 11 15 1011.8 1011.8 0.0
31/10:30am 14.9 12.1 9.9 72 2.6 WNW 15 22 8 12 1012.2 1012.2 0.0
31/10:00am 14.1 11.5 10.7 80 1.8 NW 15 24 8 13 1012.5 1012.5 0.0
31/09:30am 12.8 11.6 11.5 92 0.7 NW 9 15 5 8 1012.5 1012.5 0.0
31/09:00am 10.4 9.5 9.3 93 0.5 N 4 6 2 3 1012.5 1012.5 0.0
31/08:30am 10.1 8.7 9.0 93 0.5 NNW 6 7 3 4 1012.0 1012.0 0.0
31/08:00am 10.2 8.7 9.1 93 0.5 NW 7 11 4 6 1012.0 1012.0 0.0
31/07:30am 10.6 8.8 9.4 92 0.6 NW 9 11 5 6 1011.9 1011.9 0.0
31/07:00am 10.5 8.9 8.9 90 0.8 NW 7 11 4 6 1011.9 1011.9 0.0
31/06:30am 11.2 8.7 8.2 82 1.5 NW 11 17 6 9 1011.6 1011.6 0.0
31/06:00am 11.9 9.6 7.6 75 2.1 NW 9 15 5 8 1011.5 1011.5 0.0
31/05:30am 12.8 9.3 7.3 69 2.7 NNW 15 24 8 13 1011.1 1011.1 0.0
31/05:00am 13.3 9.8 7.3 67 2.9 NNW 15 24 8 13 1011.1 1011.1 0.0
31/04:30am 13.4 9.0 7.2 66 3.0 NNW 20 32 11 17 1010.8 1010.8 0.0
31/04:00am 13.8 9.6 7.3 65 3.2 NNW 19 35 10 19 1010.7 1010.7 0.0
31/03:30am 13.7 9.9 7.7 67 3.0 NNW 17 26 9 14 1010.8 1010.8 0.0
31/03:00am 13.6 9.2 7.6 67 3.0 NNW 20 33 11 18 1010.9 1010.9 0.0
31/02:30am 13.9 9.2 7.7 66 3.1 NNW 22 33 12 18 1010.9 1010.9 0.0
31/02:00am 14.5 8.8 6.8 60 3.7 NNW 26 44 14 24 1011.1 1011.1 0.0
31/01:30am 14.5 9.2 6.6 59 3.8 NW 24 37 13 20 1011.0 1011.0 0.0
31/01:09am 15.2 9.0 6.0 54 4.4 NNW 28 46 15 25 1010.5 1010.5 0.0
31/01:00am 15.1 8.8 5.9 54 4.4 NNW 28 41 15 22 1010.6 1010.6 0.0
31/12:30am 15.9 8.2 5.2 49 5.1 NNW 35 65 19 35 1010.7 1010.7 0.0
31/12:02am 16.8 10.3 4.5 44 5.8 NNW 28 52 15 28 1010.8 1010.8 0.0
31/12:00am 16.8 11.0 4.5 44 5.8 NNW 24 50 13 27 1010.7 1010.7 0.0
 
Date/Time
EST
Temp
°C
App
Temp
°C
Dew
Point
°C
Rel
Hum
%
Delta-T
°C
Wind Press
QNH
hPa
Press
MSL
hPa
Rain since
9am
mm
Dir  Spd
km/h
Gust
km/h
Spd
kts
Gust
kts
30/11:30pm 16.1 11.4 6.0 51 4.9 N 20 30 11 16 1010.5 1010.5 0.0
30/11:00pm 15.8 10.8 6.5 54 4.5 N 22 35 12 19 1010.4 1010.4 0.0
30/10:30pm 15.5 10.2 7.0 57 4.2 N 24 39 13 21 1010.6 1010.6 0.0
30/10:24pm 15.7 9.7 7.0 56 4.3 N 28 46 15 25 1010.6 1010.6 0.0
30/10:00pm 15.6 10.1 7.6 59 4.0 N 26 44 14 24 1010.7 1010.7 0.0
30/09:30pm 15.4 10.5 8.4 63 3.5 N 24 35 13 19 1011.3 1011.3 0.0
30/09:00pm 15.4 11.1 7.9 61 3.8 N 20 35 11 19 1011.8 1011.8 0.0
30/08:30pm 15.1 10.9 7.4 60 3.8 N 19 35 10 19 1011.5 1011.5 0.0
30/08:00pm 14.9 10.5 7.2 60 3.8 N 20 32 11 17 1011.6 1011.6 0.0
30/07:30pm 15.1 8.4 7.4 60 3.8 N 32 56 17 30 1011.1 1011.1 0.0
30/07:12pm 15.0 9.1 7.5 61 3.7 N 28 50 15 27 1010.9 1010.9 0.0
30/07:00pm 14.9 9.4 7.5 61 3.7 N 26 41 14 22 1010.8 1010.8 0.0
30/06:30pm 14.2 9.4 7.5 64 3.3 NNE 22 39 12 21 1011.0 1011.0 0.0
30/06:00pm 14.8 8.7 6.6 58 4.0 NNE 28 46 15 25 1010.8 1010.8 0.0
30/05:30pm 15.2 8.7 6.5 56 4.2 N 30 46 16 25 1011.7 1011.7 0.0
30/05:00pm 15.2 9.9 7.0 58 4.0 NNE 24 39 13 21 1012.0 1012.0 0.0
30/04:30pm 15.9 10.6 6.6 54 4.5 NNE 24 39 13 21 1012.3 1012.3 0.0
30/04:00pm 16.1 11.2 7.1 55 4.5 NNE 22 37 12 20 1012.6 1012.6 0.0
30/03:30pm 16.5 10.8 6.9 53 4.7 N 26 35 14 19 1013.2 1013.2 0.0
30/03:00pm 16.6 11.0 7.0 53 4.8 NNE 26 39 14 21 1013.6 1013.6 0.0
30/02:30pm 16.4 11.5 7.1 54 4.6 NNE 22 35 12 19 1014.4 1014.4 0.0
30/02:00pm 16.5 10.9 7.2 54 4.6 NNE 26 35 14 19 1015.4 1015.4 0.0
30/01:30pm 17.2 12.9 7.8 54 4.8 NNE 20 35 11 19 1015.7 1015.7 0.0
30/01:00pm 17.1 12.8 8.0 55 4.6 N 20 32 11 17 1016.6 1016.6 0.0
30/12:30pm 17.2 12.9 7.8 54 4.8 N 20 32 11 17 1017.5 1017.5 0.0
30/12:00pm 16.4 12.2 8.1 58 4.2 N 20 30 11 16 1018.2 1018.2 0.0
30/11:30am 15.7 12.0 9.4 66 3.3 NNE 19 30 10 16 1018.9 1018.9 0.0
30/11:00am 14.6 11.5 11.6 82 1.6 NNE 19 26 10 14 1019.9 1019.9 0.0
30/10:30am 13.8 10.8 12.0 89 1.0 NE 19 26 10 14 1020.6 1020.6 0.0
30/10:00am 13.0 9.9 11.7 92 0.7 NNE 19 30 10 16 1021.3 1021.3 0.0
30/09:30am 11.5 8.9 10.6 94 0.5 NNE 15 20 8 11 1021.7 1021.7 0.0
30/09:00am 10.8 7.9 9.7 93 0.6 N 15 24 8 13 1022.3 1022.3 0.0
30/08:30am 10.1 7.5 9.2 94 0.4 NNE 13 20 7 11 1022.5 1022.5 0.0
30/08:00am 9.7 7.3 8.8 94 0.4 NNE 11 15 6 8 1022.7 1022.7 0.0
30/07:30am 9.4 7.4 8.5 94 0.4 NNE 9 13 5 7 1022.7 1022.7 0.0
30/07:00am 9.5 7.1 8.6 94 0.4 NNE 11 15 6 8 1022.5 1022.5 0.0
30/06:30am 9.7 7.8 8.9 95 0.4 NNE 9 15 5 8 1022.2 1022.2 0.0
30/06:00am 9.5 7.1 8.7 95 0.4 NNE 11 15 6 8 1022.2 1022.2 0.0
30/05:30am 8.9 7.2 8.3 96 0.3 NNE 7 9 4 5 1022.2 1022.2 0.0
30/05:00am 8.8 7.1 8.2 96 0.3 N 7 9 4 5 1022.2 1022.2 0.0
30/04:30am 8.5 7.3 7.9 96 0.3 NNE 4 7 2 4 1022.2 1022.2 0.0
30/04:00am 8.9 7.4 8.3 96 0.3 N 6 7 3 4 1022.3 1022.3 0.0
30/03:30am 9.5 7.1 8.7 95 0.4 N 11 15 6 8 1022.4 1022.4 0.0
30/03:00am 9.4 7.0 8.6 95 0.4 N 11 17 6 9 1022.5 1022.5 0.0
30/02:30am 9.3 6.9 8.7 96 0.3 NNE 11 15 6 8 1022.5 1022.5 0.0
30/02:00am 9.8 7.6 9.2 96 0.3 NNE 11 17 6 9 1022.6 1022.6 0.0
30/01:30am 10.0 7.4 9.4 96 0.3 NNE 13 20 7 11 1022.7 1022.7 0.0
30/01:00am 10.1 7.5 9.5 96 0.3 N 13 20 7 11 1023.0 1023.0 0.0
30/12:30am 10.2 7.6 9.4 95 0.4 NNE 13 19 7 10 1023.4 1023.4 0.0
30/12:00am 10.6 7.7 9.8 95 0.4 NNE 15 20 8 11 1023.8 1023.8 0.0
 
Date/Time
EST
Temp
°C
App
Temp
°C
Dew
Point
°C
Rel
Hum
%
Delta-T
°C
Wind Press
QNH
hPa
Press
MSL
hPa
Rain since
9am
mm
Dir  Spd
km/h
Gust
km/h
Spd
kts
Gust
kts
29/11:30pm 10.7 7.5 9.9 95 0.4 NNE 17 26 9 14 1023.9 1023.9 0.0
29/11:00pm 10.7 7.9 9.9 95 0.4 NNE 15 24 8 13 1024.1 1024.1 0.0
29/10:30pm 11.0 8.2 10.1 94 0.5 NNE 15 24 8 13 1024.1 1024.1 0.0
29/10:00pm 11.2 8.4 10.1 93 0.6 NNE 15 20 8 11 1024.2 1024.2 0.0
29/09:30pm 11.2 9.2 10.1 93 0.6 N 11 19 6 10 1024.3 1024.3 0.0
29/09:00pm 11.4 9.4 10.3 93 0.6 N 11 17 6 9 1024.2 1024.2 0.0
29/08:30pm 11.9 9.6 10.6 92 0.7 NNE 13 19 7 10 1024.2 1024.2 0.0

Latest Capital City Observations: Canberra | Sydney | Melbourne | Brisbane | Adelaide | Perth | Hobart | Darwin

Other formats

Comma delimited format used in spreadsheet applications
http://www.bom.gov.au/fwo/IDV60901/IDV60901.94857.axf

JavaScript Object Notation format (JSON) in row-major order
http://www.bom.gov.au/fwo/IDV60901/IDV60901.94857.json

Data quality

Most of these data are generated automatically and are frequently updated. Quality checks on data are not normally performed. It is possible for incorrect values to appear. Refer to information at About Latest Weather Observations and please check the disclaimer before using these data.